createdAt,value
2019-05-26T00:01:20.447Z,13.50
2019-05-26T00:06:16.010Z,13.50
2019-05-26T00:11:11.510Z,13.40
2019-05-26T00:16:07.015Z,13.40
2019-05-26T00:21:02.682Z,13.20
2019-05-26T00:25:58.278Z,13.10
2019-05-26T00:30:54.092Z,13.00
2019-05-26T00:35:49.799Z,13.00
2019-05-26T00:40:45.677Z,12.90
2019-05-26T00:45:41.171Z,12.90
2019-05-26T00:50:36.788Z,12.90
2019-05-26T00:55:32.306Z,12.80
2019-05-26T01:00:54.221Z,12.80
2019-05-26T01:05:49.725Z,12.70
2019-05-26T01:10:45.233Z,12.60
2019-05-26T01:15:40.730Z,12.50
2019-05-26T01:20:37.326Z,12.50
2019-05-26T01:25:32.908Z,12.60
2019-05-26T01:30:36.509Z,12.60
2019-05-26T01:35:32.261Z,12.60
2019-05-26T01:40:39.159Z,12.60
2019-05-26T01:45:34.897Z,12.60
2019-05-26T01:50:30.421Z,12.60
2019-05-26T01:55:26.343Z,12.50
2019-05-26T02:00:22.175Z,12.40
2019-05-26T02:05:17.696Z,12.30
2019-05-26T02:10:13.420Z,12.20
2019-05-26T02:15:09.838Z,12.10
2019-05-26T02:20:06.331Z,12.00
2019-05-26T02:25:01.892Z,12.00
2019-05-26T02:29:57.471Z,12.00
2019-05-26T02:34:53.120Z,11.90
2019-05-26T02:39:48.587Z,12.00
2019-05-26T02:44:44.107Z,11.80
2019-05-26T02:49:39.642Z,11.80
2019-05-26T02:54:35.143Z,11.80
2019-05-26T02:59:30.638Z,11.70
2019-05-26T03:04:27.216Z,11.60
2019-05-26T03:09:24.273Z,11.50
2019-05-26T03:14:20.999Z,11.50
2019-05-26T03:19:19.255Z,11.40
2019-05-26T03:24:18.561Z,11.40
2019-05-26T03:29:14.169Z,11.30
2019-05-26T03:34:09.701Z,11.20
2019-05-26T03:39:06.999Z,11.20
2019-05-26T03:44:02.535Z,11.20
2019-05-26T03:48:58.060Z,11.10
2019-05-26T03:53:53.699Z,11.10
2019-05-26T03:58:49.196Z,11.20
2019-05-26T04:03:44.687Z,11.20
2019-05-26T04:08:40.197Z,11.30
2019-05-26T04:13:36.000Z,11.40
2019-05-26T04:18:31.521Z,11.50
2019-05-26T04:23:27.158Z,11.70
2019-05-26T04:28:22.654Z,11.80
2019-05-26T04:33:18.199Z,11.80
2019-05-26T04:38:13.725Z,12.00
2019-05-26T04:43:14.487Z,12.10
2019-05-26T04:48:06.747Z,12.20
2019-05-26T04:53:06.662Z,12.30
2019-05-26T04:57:59.792Z,12.40
2019-05-26T05:02:55.345Z,12.50
2019-05-26T05:07:50.870Z,12.70
2019-05-26T05:12:46.574Z,12.90
2019-05-26T05:17:43.241Z,13.10
2019-05-26T05:22:38.778Z,13.30
2019-05-26T05:27:34.924Z,13.60
2019-05-26T05:32:33.034Z,13.70
2019-05-26T05:37:27.806Z,13.80
2019-05-26T05:42:23.426Z,13.90
2019-05-26T05:47:19.195Z,14.10
2019-05-26T05:52:14.830Z,14.30
2019-05-26T06:02:28.040Z,14.50
2019-05-26T06:07:23.610Z,14.60
2019-05-26T06:12:19.189Z,14.90
2019-05-26T06:17:14.698Z,15.10
2019-05-26T06:22:10.260Z,15.30
2019-05-26T06:27:05.921Z,15.50
2019-05-26T06:32:02.786Z,15.70
2019-05-26T06:36:58.738Z,15.90
2019-05-26T06:41:54.346Z,16.00
2019-05-26T06:46:49.862Z,16.20
2019-05-26T06:51:45.422Z,16.40
2019-05-26T06:56:40.978Z,16.60
2019-05-26T07:01:36.743Z,16.70
2019-05-26T07:06:32.266Z,17.00
2019-05-26T07:11:27.785Z,17.30
2019-05-26T07:16:36.903Z,17.60
2019-05-26T07:21:21.503Z,17.90
2019-05-26T07:26:17.069Z,18.30
2019-05-26T07:31:12.578Z,18.60
2019-05-26T07:36:08.070Z,18.90
2019-05-26T07:41:03.573Z,19.10
2019-05-26T07:45:59.260Z,19.40
2019-05-26T07:50:54.775Z,19.60
2019-05-26T07:55:50.314Z,19.70
2019-05-26T08:00:46.007Z,20.00
2019-05-26T08:05:41.538Z,20.20
2019-05-26T08:10:37.091Z,20.50
2019-05-26T08:15:32.591Z,20.70
2019-05-26T08:20:28.370Z,20.90
2019-05-26T08:25:23.818Z,21.10
2019-05-26T08:30:19.429Z,21.30
2019-05-26T08:35:15.085Z,21.50
2019-05-26T08:40:19.844Z,21.70
2019-05-26T08:45:15.428Z,21.90
2019-05-26T08:50:11.156Z,22.10
2019-05-26T08:55:06.731Z,22.10
2019-05-26T09:00:02.353Z,22.50
2019-05-26T09:04:57.938Z,22.70
2019-05-26T09:09:54.561Z,23.10
2019-05-26T09:14:50.100Z,23.20
2019-05-26T09:19:45.748Z,23.30
2019-05-26T09:24:59.853Z,23.80
2019-05-26T09:29:58.290Z,24.10
2019-05-26T09:34:53.783Z,24.50
2019-05-26T09:39:49.286Z,24.80
2019-05-26T09:44:44.813Z,25.00
2019-05-26T09:49:40.423Z,24.80
2019-05-26T09:54:36.035Z,24.50
2019-05-26T09:59:32.637Z,24.50
2019-05-26T10:04:28.314Z,24.40
2019-05-26T10:09:23.861Z,24.30
2019-05-26T10:14:19.370Z,24.40
2019-05-26T10:19:14.875Z,24.40
2019-05-26T10:24:10.383Z,24.30
2019-05-26T10:29:08.332Z,24.30
2019-05-26T10:34:03.858Z,24.30
2019-05-26T10:38:59.466Z,24.30
2019-05-26T10:43:54.990Z,24.20
2019-05-26T10:48:50.502Z,24.30
2019-05-26T10:53:46.018Z,24.30
2019-05-26T10:58:41.591Z,24.40
2019-05-26T11:03:37.222Z,24.50
2019-05-26T11:08:32.830Z,24.40
2019-05-26T11:13:28.329Z,24.40
2019-05-26T11:18:23.889Z,24.70
2019-05-26T11:23:19.515Z,25.00
2019-05-26T11:28:15.021Z,25.50
2019-05-26T11:33:11.707Z,25.80
2019-05-26T11:38:07.235Z,25.70
2019-05-26T11:43:15.806Z,25.70
2019-05-26T11:47:59.990Z,26.30
2019-05-26T11:52:55.754Z,27.50
2019-05-26T11:57:51.274Z,27.80
2019-05-26T12:02:46.963Z,27.50
2019-05-26T12:07:42.506Z,27.10
2019-05-26T12:12:38.294Z,27.00
2019-05-26T12:17:33.741Z,26.60
2019-05-26T12:22:29.255Z,26.50
2019-05-26T12:27:24.754Z,26.50
2019-05-26T12:32:20.354Z,26.20
2019-05-26T12:37:15.910Z,25.40
2019-05-26T12:42:11.472Z,24.80
2019-05-26T12:47:07.109Z,24.70
2019-05-26T12:52:04.711Z,24.90
2019-05-26T12:57:00.299Z,24.80
2019-05-26T13:01:55.837Z,24.50
2019-05-26T13:06:51.383Z,24.30
2019-05-26T13:11:46.904Z,24.00
2019-05-26T13:16:42.725Z,24.50
2019-05-26T13:21:38.226Z,25.80
2019-05-26T13:26:33.797Z,26.50
2019-05-26T13:31:30.369Z,27.10
2019-05-26T13:36:25.914Z,26.50
2019-05-26T13:41:21.450Z,25.70
2019-05-26T13:46:16.985Z,25.10
2019-05-26T13:51:12.521Z,24.40
2019-05-26T13:56:08.178Z,23.90
2019-05-26T14:01:03.622Z,23.70
2019-05-26T14:05:59.226Z,23.90
2019-05-26T14:10:54.798Z,24.00
2019-05-26T14:15:50.756Z,24.20
2019-05-26T14:20:46.256Z,24.30
2019-05-26T14:25:41.961Z,24.30
2019-05-26T14:30:37.463Z,24.10
2019-05-26T14:35:32.996Z,24.20
2019-05-26T14:40:29.802Z,24.00
2019-05-26T14:45:25.456Z,23.80
2019-05-26T14:50:21.312Z,23.80
2019-05-26T14:55:17.043Z,24.10
2019-05-26T15:00:14.769Z,24.10
2019-05-26T15:05:10.877Z,25.20
2019-05-26T15:10:07.361Z,26.50
2019-05-26T15:15:02.977Z,26.80
2019-05-26T15:20:01.325Z,26.40
2019-05-26T15:24:57.003Z,25.70
2019-05-26T15:29:53.042Z,25.20
2019-05-26T15:34:48.776Z,24.60
2019-05-26T15:39:44.878Z,24.10
2019-05-26T15:44:41.385Z,23.30
2019-05-26T15:49:38.992Z,22.50
2019-05-26T15:54:38.172Z,22.00
2019-05-26T15:59:33.673Z,21.50
2019-05-26T16:04:30.834Z,20.80
2019-05-26T16:09:26.718Z,20.70
2019-05-26T16:14:22.866Z,20.70
2019-05-26T16:19:18.934Z,20.90
2019-05-26T16:24:14.687Z,20.80
2019-05-26T16:29:10.697Z,20.70
2019-05-26T16:34:06.656Z,20.30
2019-05-26T16:39:02.475Z,20.60
2019-05-26T16:43:58.198Z,21.30
2019-05-26T16:48:58.310Z,21.60
2019-05-26T16:53:54.672Z,22.00
2019-05-26T16:58:50.832Z,22.70
2019-05-26T17:03:46.891Z,22.90
2019-05-26T17:08:42.838Z,23.00
2019-05-26T17:13:38.540Z,23.00
2019-05-26T17:18:34.870Z,23.10
2019-05-26T17:23:30.927Z,23.20
2019-05-26T17:28:27.726Z,23.00
2019-05-26T17:33:23.813Z,23.40
2019-05-26T17:38:19.948Z,23.80
2019-05-26T17:43:16.341Z,23.70
2019-05-26T17:48:12.586Z,23.90
2019-05-26T17:53:09.050Z,24.90
2019-05-26T17:58:05.232Z,24.30
2019-05-26T18:03:07.088Z,23.10
2019-05-26T18:08:08.600Z,22.20
2019-05-26T18:13:05.570Z,21.60
2019-05-26T18:18:01.610Z,21.00
2019-05-26T18:22:57.963Z,20.70
2019-05-26T18:27:53.488Z,20.50
2019-05-26T18:32:50.469Z,20.30
2019-05-26T18:37:46.166Z,20.00
2019-05-26T18:42:42.153Z,19.70
2019-05-26T18:48:03.136Z,19.50
2019-05-26T18:52:54.130Z,19.20
2019-05-26T18:57:50.133Z,18.90
2019-05-26T19:02:46.110Z,18.70
2019-05-26T19:07:42.011Z,18.50
2019-05-26T19:12:37.845Z,18.40
2019-05-26T19:17:33.465Z,18.50
2019-05-26T19:22:29.158Z,18.50
2019-05-26T19:27:25.354Z,18.40
2019-05-26T19:32:21.047Z,18.30
2019-05-26T19:37:16.937Z,18.30
2019-05-26T19:42:13.046Z,18.30
2019-05-26T19:47:09.133Z,18.10
2019-05-26T19:52:05.439Z,18.00
2019-05-26T19:57:01.402Z,18.10
2019-05-26T20:01:57.671Z,18.10
2019-05-26T20:06:53.258Z,18.20
2019-05-26T20:11:48.881Z,18.10
2019-05-26T20:16:44.502Z,18.00
2019-05-26T20:21:58.901Z,17.90
2019-05-26T20:26:54.391Z,17.80
2019-05-26T20:31:49.990Z,17.70
2019-05-26T20:36:45.552Z,17.70
2019-05-26T20:41:41.116Z,17.60
2019-05-26T20:46:36.686Z,17.50
2019-05-26T20:51:32.175Z,17.30
2019-05-26T20:56:27.661Z,17.20
2019-05-26T21:01:23.161Z,17.20
2019-05-26T21:06:18.775Z,17.00
2019-05-26T21:11:14.286Z,16.90
2019-05-26T21:16:10.006Z,16.80
2019-05-26T21:21:08.743Z,16.80
2019-05-26T21:26:04.209Z,16.80
2019-05-26T21:30:59.703Z,16.80
2019-05-26T21:35:55.218Z,16.70
2019-05-26T21:40:50.714Z,16.60
2019-05-26T21:45:46.272Z,16.30
2019-05-26T21:50:44.698Z,16.20
2019-05-26T21:55:40.405Z,16.10
2019-05-26T22:00:45.679Z,16.00
2019-05-26T22:05:41.330Z,15.90
2019-05-26T22:10:36.901Z,15.70
2019-05-26T22:15:32.460Z,15.60
2019-05-26T22:20:27.982Z,15.60
2019-05-26T22:25:23.565Z,15.50
2019-05-26T22:30:19.213Z,15.50
2019-05-26T22:35:14.706Z,15.40
2019-05-26T22:40:10.954Z,15.40
2019-05-26T22:45:06.900Z,15.30
2019-05-26T22:50:02.450Z,15.20
2019-05-26T22:54:57.990Z,15.10
2019-05-26T22:59:53.477Z,15.00
2019-05-26T23:04:48.973Z,15.00
2019-05-26T23:09:44.527Z,15.00
2019-05-26T23:14:41.094Z,14.90
2019-05-26T23:19:36.597Z,14.80
2019-05-26T23:24:32.118Z,14.80
2019-05-26T23:29:31.886Z,14.70
2019-05-26T23:34:28.444Z,14.70
2019-05-26T23:39:23.929Z,14.60
2019-05-26T23:44:19.465Z,14.50
2019-05-26T23:49:14.922Z,14.50
2019-05-26T23:54:10.408Z,14.50
2019-05-26T23:59:05.866Z,14.60
